Latest Weather Observations for Port Hedland

IDW60801

Issued at 9:03 pm WST Wednesday 29 March 2017 (issued every 30 minutes, with the page automatically refreshed every 10 minutes)

About weather observations | Map of weather stations | Latest weather observations for WA | Other Formats
Station Details ID: 004032 Name: PORT HEDLAND AIRPORT Lat: -20.37 Lon: 118.63 Height: 6.4 m
Data from the previous 72 hours. | See also: Recent months at Port Hedland
Date/Time
WST
Temp
°C
App
Temp
°C
Dew
Point
°C
Rel
Hum
%
Delta-T
°C
Wind Press
QNH
hPa
Press
MSL
hPa
Rain since
9am
mm
Dir  Spd
km/h
Gust
km/h
Spd
kts
Gust
kts
29/09:00pm 28.1 35.0 25.7 87 1.7 CALM 0 7 0 4 1011.8 1011.7 0.0
29/08:30pm 27.9 33.8 25.3 86 1.8 S 4 6 2 3 1011.5 - 0.0
29/08:00pm 27.9 33.0 25.5 87 1.7 ESE 9 11 5 6 1011.3 - 0.0
29/07:30pm 28.1 33.5 25.5 86 1.8 SSE 7 13 4 7 1011.0 - 0.0
29/07:00pm 29.3 35.3 25.5 80 2.7 E 4 7 2 4 1010.8 - 0.0
29/06:30pm 29.5 35.5 25.5 79 2.8 NNW 4 9 2 5 1010.7 - 0.0
29/06:00pm 29.6 34.0 25.6 79 2.8 NNW 13 15 7 8 1009.8 1009.7 0.0
29/05:30pm 30.2 34.6 25.7 77 3.2 N 13 17 7 9 1009.2 - 0.0
29/05:00pm 30.6 35.0 25.7 75 3.5 N 13 19 7 10 1008.7 - 0.0
29/04:30pm 30.9 35.2 25.5 73 3.8 N 13 17 7 9 1008.3 - 0.0
29/04:00pm 31.7 35.4 25.8 71 4.2 N 17 20 9 11 1008.4 - 0.0
29/03:30pm 31.6 35.7 25.7 71 4.2 N 15 22 8 12 1008.5 - 0.0
29/03:00pm 31.4 34.9 25.5 71 4.2 N 17 20 9 11 1008.7 1008.6 0.0
29/02:30pm 31.8 35.8 25.6 69 4.4 N 15 22 8 12 1008.9 - 0.0
29/02:00pm 31.5 35.7 26.5 75 3.6 N 17 24 9 13 1009.1 - 0.0
29/01:30pm 31.5 34.9 24.6 67 4.8 N 15 19 8 10 1009.1 - 0.0
29/01:00pm 31.2 34.5 25.1 70 4.3 N 17 20 9 11 1009.4 - 0.0
29/12:30pm 31.3 35.6 26.1 74 3.7 NNE 15 20 8 11 1009.7 - 0.0
29/12:00pm 31.0 34.7 25.8 74 3.7 NNE 17 20 9 11 1010.3 1010.2 0.0
29/11:30am 31.1 35.3 25.4 71 4.0 ENE 13 19 7 10 1010.5 - 0.0
29/11:00am 30.6 34.0 25.2 73 3.8 ENE 17 20 9 11 1011.0 - 0.0
29/10:30am 30.0 33.8 25.3 76 3.3 ENE 15 20 8 11 1011.2 - 0.0
29/10:00am 29.1 31.8 25.1 79 2.8 ENE 20 22 11 12 1011.5 - 0.0
29/09:30am 28.0 31.4 25.8 88 1.6 E 19 24 10 13 1011.7 - 0.0
29/09:00am 27.8 31.5 25.8 89 1.4 E 17 20 9 11 1011.5 1011.4 51.8
29/08:30am 27.1 31.7 25.9 93 0.8 E 13 17 7 9 1011.4 - 51.8
29/08:00am 26.3 29.8 25.4 95 0.6 ENE 17 20 9 11 1011.2 - 51.8
29/07:30am 26.0 29.5 25.5 97 0.4 E 17 24 9 13 1010.6 - 51.8
29/07:28am 26.0 29.0 25.3 96 0.5 E 19 24 10 13 1010.5 - 51.8
29/07:23am 26.0 29.2 25.5 97 0.4 E 19 24 10 13 1010.5 - 51.6
29/07:00am 25.7 29.6 25.5 99 0.1 E 15 19 8 10 1010.1 - 51.6
29/06:30am 25.5 29.4 25.5 100 0.0 E 15 19 8 10 1009.6 - 51.6
29/06:00am 25.4 29.6 25.4 100 0.0 E 13 20 7 11 1009.5 1009.4 51.6
29/05:30am 24.5 28.9 24.5 100 0.0 E 9 11 5 6 1009.2 - 51.6
29/05:00am 24.2 28.1 24.2 100 0.0 SE 11 15 6 8 1009.4 - 51.4
29/04:40am 24.2 28.1 24.2 100 0.0 SSE 11 15 6 8 1009.4 - 51.4
29/04:30am 24.2 29.4 24.2 100 0.0 SE 4 11 2 6 1009.4 - 51.4
29/04:27am 24.0 29.5 24.0 100 0.0 ESE 2 7 1 4 1009.1 - 51.4
29/04:00am 23.8 27.8 23.8 100 0.0 SSE 9 17 5 9 1009.1 - 47.2
29/03:41am 23.8 22.9 23.8 100 0.0 SSE 35 50 19 27 1009.2 - 33.0
29/03:30am 23.7 21.2 23.7 100 0.0 SSE 43 56 23 30 1008.9 - 14.6
29/03:26am 24.1 23.0 24.1 100 0.0 SSE 37 48 20 26 1008.7 - 9.6
29/03:16am 25.7 27.5 25.5 99 0.1 NE 26 33 14 18 1008.3 - 2.4
29/03:00am 26.1 30.0 24.9 93 0.8 E 13 20 7 11 1008.4 1008.3 0.4
29/02:30am 26.2 29.7 24.8 92 1.0 E 15 20 8 11 1008.5 - 0.4
29/02:00am 26.7 32.3 25.7 94 0.7 SE 7 11 4 6 1008.8 - 0.4
29/01:30am 26.8 33.6 25.6 93 0.8 CALM 0 6 0 3 1008.9 - 0.4
29/01:00am 26.7 33.5 25.5 93 0.8 CALM 0 0 0 0 1009.1 - 0.4
29/12:30am 26.6 33.2 25.2 92 1.0 CALM 0 0 0 0 1009.4 - 0.4
29/12:00am 26.5 32.0 25.6 95 0.6 WSW 7 9 4 5 1009.2 1009.1 0.4
 
Date/Time
WST
Temp
°C
App
Temp
°C
Dew
Point
°C
Rel
Hum
%
Delta-T
°C
Wind Press
QNH
hPa
Press
MSL
hPa
Rain since
9am
mm
Dir  Spd
km/h
Gust
km/h
Spd
kts
Gust
kts
28/11:30pm 26.6 30.8 25.4 93 0.8 WSW 13 15 7 8 1009.3 - 0.4
28/11:16pm 26.6 31.0 25.7 95 0.6 W 13 17 7 9 1009.1 - 0.4
28/11:00pm 26.7 31.3 26.0 96 0.5 WSW 13 19 7 10 1009.3 - 0.4
28/10:41pm 27.1 32.5 26.0 94 0.8 WSW 9 15 5 8 1009.8 - 0.2
28/10:30pm 27.3 31.7 26.2 94 0.8 SSW 15 24 8 13 1010.1 - 0.2
28/10:00pm 28.9 33.3 26.3 86 1.9 SW 15 20 8 11 1010.3 - 0.2
28/09:30pm 28.4 33.9 26.2 88 1.6 WNW 9 13 5 7 1009.5 - 0.2
28/09:00pm 28.4 33.4 26.0 87 1.7 NW 11 15 6 8 1008.9 1008.8 0.2
28/08:30pm 28.7 33.9 26.3 87 1.7 NW 11 13 6 7 1008.7 - 0.2
28/08:00pm 28.8 33.4 26.0 85 2.0 WNW 13 15 7 8 1008.8 - 0.2
28/07:30pm 29.0 33.1 25.8 83 2.3 WNW 15 19 8 10 1008.6 - 0.2
28/07:00pm 29.2 32.2 25.6 81 2.5 W 20 24 11 13 1008.3 - 0.2
28/06:30pm 29.3 33.1 25.9 82 2.4 WNW 17 22 9 12 1008.1 - 0.2
28/06:00pm 29.9 33.7 25.9 79 2.8 WNW 17 20 9 11 1007.7 1007.6 0.2
28/05:30pm 30.8 34.0 25.8 74 3.6 NW 20 24 11 13 1007.6 - 0.2
28/05:00pm 31.1 34.5 26.1 75 3.6 NNW 20 26 11 14 1007.3 - 0.2
28/04:30pm 31.5 35.2 25.8 72 4.1 N 17 20 9 11 1007.7 - 0.2
28/04:00pm 31.7 35.5 25.3 69 4.5 N 15 19 8 10 1007.6 - 0.2
28/03:30pm 32.0 35.7 25.1 67 4.9 N 15 20 8 11 1007.7 - 0.2
28/03:00pm 32.1 36.3 25.4 67 4.8 N 13 19 7 10 1007.7 1007.6 0.2
28/02:30pm 31.7 35.5 25.3 69 4.5 N 15 20 8 11 1008.1 - 0.2
28/02:00pm 32.0 35.4 25.3 67 4.7 N 17 24 9 13 1008.4 - 0.0
28/01:30pm 31.6 35.3 25.7 71 4.2 N 17 24 9 13 1008.8 - 0.0
28/01:00pm 31.5 35.1 25.6 71 4.2 NNE 17 20 9 11 1009.0 - 0.0
28/12:30pm 31.7 35.2 24.8 67 4.9 NE 15 24 8 13 1009.2 - 0.0
28/12:00pm 31.2 35.1 24.8 69 4.5 NNE 13 22 7 12 1009.5 1009.4 0.0
28/11:30am 31.0 33.3 24.4 68 4.6 NNE 20 24 11 13 1009.9 - 0.2
28/11:00am 31.0 33.3 24.1 66 4.8 NNE 19 24 10 13 1010.4 - 0.0
28/10:30am 31.0 32.6 23.9 66 4.9 NE 22 28 12 15 1010.7 - 0.0
28/10:00am 30.9 32.5 23.8 66 4.9 ENE 22 30 12 16 1011.1 - 0.2
28/09:30am 30.4 30.8 23.8 68 4.6 E 28 37 15 20 1011.3 - 0.2
28/09:00am 29.7 28.7 23.6 69 4.2 E 35 48 19 26 1011.5 1011.4 1.2
28/08:30am 29.0 28.4 23.4 72 3.8 E 32 44 17 24 1011.5 - 1.2
28/08:00am 28.6 29.3 23.7 75 3.4 E 26 35 14 19 1011.2 - 1.2
28/07:30am 27.4 29.6 24.0 82 2.3 ESE 19 24 10 13 1010.9 - 1.2
28/07:00am 26.3 29.8 24.2 88 1.4 ESE 13 19 7 10 1010.6 - 1.2
28/06:30am 25.2 29.0 24.0 93 0.8 ESE 11 15 6 8 1010.5 - 1.2
28/06:00am 25.3 29.0 23.9 92 1.0 SE 11 17 6 9 1010.3 1010.2 1.2
28/05:30am 25.3 28.9 23.7 91 1.1 SE 11 15 6 8 1010.1 - 1.2
28/05:00am 25.4 29.3 23.6 90 1.2 SSE 9 11 5 6 1009.8 - 1.2
28/04:30am 25.7 29.5 23.4 87 1.6 SE 9 13 5 7 1009.7 - 1.2
28/04:00am 25.8 29.8 23.7 88 1.4 SE 9 11 5 6 1009.8 - 1.2
28/03:30am 25.9 29.2 23.8 88 1.4 SSE 13 17 7 9 1010.2 - 1.2
28/03:00am 26.1 27.8 24.1 89 1.4 SSE 22 32 12 17 1010.5 1010.4 1.2
28/02:30am 25.8 28.9 24.8 94 0.7 SSE 17 20 9 11 1010.2 - 1.2
28/02:00am 26.0 30.6 24.8 93 0.8 SE 9 11 5 6 1009.7 - 1.2
28/01:30am 25.9 30.6 24.9 94 0.7 SSE 9 11 5 6 1009.9 - 1.2
28/01:00am 25.9 30.6 25.0 95 0.6 SSE 9 11 5 6 1010.1 - 1.2
28/12:30am 26.0 31.1 25.0 94 0.7 S 7 9 4 5 1010.3 - 1.2
28/12:00am 26.0 31.0 24.8 93 0.8 SE 7 9 4 5 1010.6 1010.5 1.2
 
Date/Time
WST
Temp
°C
App
Temp
°C
Dew
Point
°C
Rel
Hum
%
Delta-T
°C
Wind Press
QNH
hPa
Press
MSL
hPa
Rain since
9am
mm
Dir  Spd
km/h
Gust
km/h
Spd
kts
Gust
kts
27/11:30pm 26.0 31.2 24.8 93 0.8 SSE 6 9 3 5 1010.8 - 1.2
27/11:00pm 26.1 30.0 24.9 93 0.8 SSE 13 17 7 9 1011.1 - 1.2
27/10:30pm 26.1 29.6 24.9 93 0.8 SSE 15 20 8 11 1011.4 - 1.2
27/10:00pm 26.4 30.4 25.0 92 1.0 SSE 13 19 7 10 1011.6 - 1.2
27/09:30pm 26.4 30.5 25.2 93 0.8 SSE 13 19 7 10 1011.7 - 1.2
27/09:00pm 26.6 30.5 25.4 93 0.8 S 15 19 8 10 1011.3 1011.2 1.2
27/08:30pm 26.6 31.0 25.7 95 0.6 S 13 19 7 10 1010.8 - 1.2
27/08:00pm 26.8 31.7 25.8 94 0.7 SSE 11 15 6 8 1010.6 - 1.2
27/07:30pm 27.0 31.9 25.2 90 1.3 SE 9 13 5 7 1009.8 - 1.2
27/07:00pm 26.9 31.8 25.3 91 1.1 SE 9 11 5 6 1009.1 - 1.2
27/06:30pm 27.1 31.8 25.5 91 1.1 SSE 11 13 6 7 1008.4 - 1.2
27/06:00pm 27.5 32.2 25.5 89 1.4 SSE 11 13 6 7 1008.3 1008.2 1.2
27/05:30pm 28.3 33.1 25.1 83 2.2 SE 9 11 5 6 1008.4 - 1.2
27/05:00pm 27.8 32.8 24.8 84 2.1 ESE 7 9 4 5 1008.6 - 1.2
27/04:30pm 27.4 32.1 25.0 87 1.7 SE 9 11 5 6 1008.9 - 1.2
27/04:00pm 27.5 32.1 24.7 85 1.9 ESE 9 11 5 6 1008.8 - 1.2
27/03:30pm 27.7 32.3 24.7 84 2.1 E 9 11 5 6 1009.1 - 1.2
27/03:00pm 27.8 31.2 24.0 80 2.6 ESE 13 17 7 9 1009.6 1009.5 1.2
27/02:30pm 28.0 30.4 24.2 80 2.6 ENE 19 24 10 13 1009.4 - 1.2
27/02:00pm 28.0 29.8 24.2 80 2.6 NE 22 32 12 17 1010.1 - 1.2
27/01:30pm 28.0 29.3 24.0 79 2.8 ENE 24 33 13 18 1011.0 - 1.2
27/01:00pm 27.7 27.0 24.1 81 2.5 ENE 35 52 19 28 1010.7 - 1.2
27/12:44pm 27.5 23.9 25.3 88 1.5 ENE 54 59 29 32 1010.7 - 1.2
27/12:30pm 27.0 24.1 25.8 93 0.8 NE 52 76 28 41 1009.9 - 0.8
27/12:25pm 27.9 26.5 25.5 87 1.7 NNE 43 65 23 35 1009.9 - 0.0
27/12:22pm 31.1 31.8 26.4 76 3.4 NNE 35 46 19 25 1009.7 - 0.0
27/12:00pm 32.3 35.1 27.5 76 3.5 NNE 28 35 15 19 1009.9 1009.8 0.0
27/11:30am 32.1 35.8 26.6 72 4.0 NNE 20 26 11 14 1010.4 - 0.0
27/11:00am 32.0 35.7 26.3 72 4.1 NNE 19 24 10 13 1010.7 - 0.0
27/10:30am 32.3 35.9 26.4 71 4.2 NNE 20 24 11 13 1010.9 - 0.0
27/10:00am 32.4 37.0 26.0 69 4.6 ENE 13 19 7 10 1010.8 - 0.0
27/09:30am 32.1 34.9 24.9 65 5.1 NE 19 22 10 12 1011.1 - 0.0
27/09:00am 31.9 35.9 25.0 67 4.9 E 13 19 7 10 1010.9 1010.8 0.0
27/08:30am 31.2 35.2 25.1 70 4.3 ESE 13 17 7 9 1010.5 - 0.0
27/08:00am 30.4 34.7 25.5 75 3.5 E 13 15 7 8 1010.0 - 0.0
27/07:30am 29.3 34.2 25.9 82 2.4 ENE 11 13 6 7 1009.6 - 0.0
27/07:00am 27.8 33.7 26.2 91 1.1 E 7 9 4 5 1009.4 - 0.0
27/06:30am 27.4 33.2 26.0 92 1.0 ESE 7 11 4 6 1008.9 - 0.0
27/06:00am 27.3 32.5 25.7 91 1.1 ESE 9 11 5 6 1008.4 1008.3 0.0
27/05:30am 27.6 32.9 25.8 90 1.3 ESE 9 11 5 6 1008.5 - 0.0
27/05:00am 27.8 34.8 25.8 89 1.4 CALM 0 0 0 0 1008.2 - 0.0
27/04:30am 27.9 34.3 26.1 90 1.3 ENE 4 6 2 3 1008.2 - 0.0
27/04:00am 27.7 33.9 26.3 92 1.0 ENE 6 7 3 4 1008.4 - 0.0
27/03:30am 27.5 33.7 26.6 95 0.6 E 7 9 4 5 1008.7 - 0.0
27/03:00am 27.7 34.1 26.6 94 0.8 SE 6 7 3 4 1008.7 1008.6 0.0
27/02:30am 28.1 34.1 26.3 90 1.3 SE 7 11 4 6 1008.7 - 0.0
27/02:00am 28.4 33.8 26.0 87 1.7 S 9 11 5 6 1008.9 - 0.0
27/01:30am 28.3 34.2 25.9 87 1.7 SSW 6 7 3 4 1009.1 - 0.0
27/01:00am 28.3 34.0 25.9 87 1.7 SW 7 9 4 5 1009.2 - 0.0
27/12:30am 28.5 34.9 26.1 87 1.7 SW 4 6 2 3 1009.4 - 0.0
27/12:00am 28.5 34.2 25.9 86 1.8 SW 7 9 4 5 1009.4 1009.3 0.0
 
Date/Time
WST
Temp
°C
App
Temp
°C
Dew
Point
°C
Rel
Hum
%
Delta-T
°C
Wind Press
QNH
hPa
Press
MSL
hPa
Rain since
9am
mm
Dir  Spd
km/h
Gust
km/h
Spd
kts
Gust
kts
26/11:30pm 28.4 33.7 25.8 86 1.8 SW 9 11 5 6 1009.3 - 0.0
26/11:00pm 28.7 35.5 26.1 86 1.8 WSW 2 9 1 5 1009.6 - 0.0
26/10:30pm 28.9 35.1 26.3 86 1.9 WSW 6 7 3 4 1009.8 - 0.0
26/10:00pm 28.8 34.8 26.4 87 1.7 W 7 9 4 5 1009.5 - 0.0
26/09:30pm 28.7 33.8 26.1 86 1.8 W 11 11 6 6 1009.3 - 0.0

Other Formats:

Comma delimited format used in spreadsheet applications
http://www.bom.gov.au/fwo/IDW60801/IDW60801.94312.axf

JavaScript Object Notation format (JSON) in row-major order
http://www.bom.gov.au/fwo/IDW60801/IDW60801.94312.json